Time;durP1;ratioP1;P1;durP2;ratioP2;P2;SDS_P1;SDS_P2;PMS_P1;PMS_P2;Temp;Humidity;BMP_temperature;BMP_pressure;BME280_temperature;BME280_humidity;BME280_pressure;Samples;Min_cycle;Max_cycle;Signal;HPM_P1;HPM_P2
2023/05/03 00:00:30;;;;;;;;;14.00;14.00;;;;;-150.52;100.00;63513.88;2006791;27;2806509;-74
2023/05/03 00:01:42;;;;;;;;;15.50;12.00;;;;;-150.52;100.00;63513.88;2026717;27;2793977;-73
2023/05/03 00:02:53;;;;;;;;;11.00;11.00;;;;;-150.52;100.00;63513.88;2009573;27;2786752;-73
2023/05/03 00:04:04;;;;;;;;;13.00;13.00;;;;;-150.52;100.00;63513.88;2005658;28;2797134;-74
2023/05/03 00:05:18;;;;;;;;;13.50;11.67;;;;;-150.52;100.00;63513.88;2020724;28;1823801;-73
2023/05/03 00:06:30;;;;;;;;;13.00;12.00;;;;;-150.52;100.00;63513.88;1999968;27;2800335;-74
2023/05/03 00:07:42;;;;;;;;;14.00;12.00;;;;;-150.52;100.00;63513.88;2004479;27;2786790;-74
2023/05/03 00:08:53;;;;;;;;;10.00;10.00;;;;;-150.52;100.00;63513.88;2003060;27;2791925;-74
2023/05/03 00:10:05;;;;;;;;;17.00;14.33;;;;;-150.52;100.00;63513.88;2021270;27;3537712;-74
2023/05/03 00:11:16;;;;;;;;;14.00;11.00;;;;;-150.52;100.00;63513.88;2030352;27;2799269;-73
2023/05/03 00:12:27;;;;;;;;;16.00;11.00;;;;;-150.52;100.00;63513.88;2017621;28;2802318;-74
2023/05/03 00:13:38;;;;;;;;;11.50;11.50;;;;;-150.52;100.00;63513.88;2016305;27;2784666;-73
2023/05/03 00:14:50;;;;;;;;;13.40;13.40;;;;;-150.52;100.00;63513.88;2036946;27;1836222;-73
2023/05/03 00:16:01;;;;;;;;;13.50;13.50;;;;;-150.52;100.00;63513.88;2022306;28;2810029;-73
2023/05/03 00:17:12;;;;;;;;;16.33;13.67;;;;;-150.52;100.00;63513.88;2011565;27;2814849;-73
2023/05/03 00:18:23;;;;;;;;;14.00;11.50;;;;;-150.52;100.00;63513.88;2022188;28;2788797;-74
2023/05/03 00:19:36;;;;;;;;;17.00;15.00;;;;;-150.52;100.00;63513.88;2017988;28;3545005;-74
2023/05/03 00:20:46;;;;;;;;;14.00;11.00;;;;;-150.52;100.00;63513.88;2029235;27;2788138;-73
2023/05/03 00:21:59;;;;;;;;;15.00;13.00;;;;;-150.52;100.00;63513.88;2026628;28;1833667;-73
2023/05/03 00:23:10;;;;;;;;;11.00;10.00;;;;;-150.52;100.00;63513.88;2022509;27;2784587;-73
2023/05/03 00:24:24;;;;;;;;;15.57;13.00;;;;;-150.52;100.00;63513.88;2031521;27;1831544;-73
2023/05/03 00:25:34;;;;;;;;;16.00;14.50;;;;;-150.52;100.00;63513.88;2031997;27;2808665;-73
2023/05/03 00:26:46;;;;;;;;;16.00;14.00;;;;;-150.52;100.00;63513.88;2023306;27;2802311;-73
2023/05/03 00:27:57;;;;;;;;;16.00;11.50;;;;;-150.52;100.00;63513.88;2026213;28;2795023;-73
2023/05/03 00:29:10;;;;;;;;;16.00;13.17;;;;;-150.52;100.00;63513.88;2038267;27;2808574;-73
2023/05/03 00:30:21;;;;;;;;;14.00;13.00;;;;;-150.52;100.00;63513.88;2027266;27;2784635;-74
2023/05/03 00:31:32;;;;;;;;;14.00;12.50;;;;;-150.52;100.00;63513.88;2023712;27;2791893;-74
2023/05/03 00:32:43;;;;;;;;;11.50;11.50;;;;;-150.52;100.00;63513.88;2016942;28;2792410;-73
2023/05/03 00:33:54;;;;;;;;;13.50;10.50;;;;;-150.52;100.00;63513.88;2018939;27;2788768;-73
2023/05/03 00:35:06;;;;;;;;;15.50;13.75;;;;;-150.52;100.00;63513.88;2031839;27;1826378;-73
2023/05/03 00:36:17;;;;;;;;;16.67;15.33;;;;;-150.52;100.00;63513.88;2008968;27;2815899;-73
2023/05/03 00:37:31;;;;;;;;;9.67;9.67;;;;;-150.52;100.00;63513.88;2047457;28;1827490;-73
2023/05/03 00:38:42;;;;;;;;;14.00;10.50;;;;;-150.52;100.00;63513.88;1996087;27;2787781;-73
2023/05/03 00:39:52;;;;;;;;;14.00;13.00;;;;;-150.52;100.00;63513.88;2043621;27;2795062;-74
2023/05/03 00:41:04;;;;;;;;;13.00;10.50;;;;;-150.52;100.00;63513.88;2025227;27;2787755;-74
2023/05/03 00:42:16;;;;;;;;;14.00;11.80;;;;;-150.52;100.00;63513.88;2054597;28;1824265;-73
2023/05/03 00:43:28;;;;;;;;;13.00;11.00;;;;;-150.52;100.00;63513.88;2001655;27;2791950;-73
2023/05/03 00:44:39;;;;;;;;;14.67;14.00;;;;;-150.52;100.00;63513.88;2003789;27;2809660;-73
2023/05/03 00:45:50;;;;;;;;;12.50;10.50;;;;;-150.52;100.00;63513.88;2018315;28;2787760;-73
2023/05/03 00:47:01;;;;;;;;;14.50;12.50;;;;;-150.52;100.00;63513.88;1996515;28;2797099;-73
2023/05/03 00:48:11;;;;;;;;;11.50;11.50;;;;;-150.52;100.00;63513.88;1999698;27;2790333;-73
2023/05/03 00:49:25;;;;;;;;;15.00;11.00;;;;;-150.52;100.00;63513.88;2016200;28;2787724;-73
2023/05/03 00:50:36;;;;;;;;;10.00;9.00;;;;;-150.52;100.00;63513.88;2023632;27;2766912;-73
2023/05/03 00:51:52;;;;;;;;;12.17;11.17;;;;;-150.52;100.00;63513.88;2035288;27;1835771;-73
2023/05/03 00:53:03;;;;;;;;;9.50;9.50;;;;;-150.52;100.00;63513.88;2015866;28;2763837;-74
2023/05/03 00:54:14;;;;;;;;;11.00;9.00;;;;;-150.52;100.00;63513.88;2031287;27;2772151;-74
2023/05/03 00:55:28;;;;;;;;;14.00;14.00;;;;;-150.52;100.00;63513.88;2019902;27;2796061;-73
2023/05/03 00:56:42;;;;;;;;;11.57;9.43;;;;;-150.52;100.00;63513.88;2039792;27;1831551;-73
2023/05/03 00:57:53;;;;;;;;;13.50;10.00;;;;;-150.52;100.00;63513.88;2023094;28;2784642;-74
2023/05/03 00:59:05;;;;;;;;;9.50;9.00;;;;;-150.52;100.00;63513.88;2019438;27;2759611;-73
2023/05/03 01:00:19;;;;;;;;;13.57;12.14;;;;;-150.52;100.00;63513.88;2060049;27;1824327;-74
2023/05/03 01:01:30;;;;;;;;;8.00;8.00;;;;;-150.52;100.00;63513.88;2030563;27;2750267;-74
2023/05/03 01:02:40;;;;;;;;;11.00;11.00;;;;;-150.52;100.00;63513.88;2031580;27;2781531;-74
2023/05/03 01:03:51;;;;;;;;;14.00;11.00;;;;;-150.52;100.00;63513.88;2026173;27;2782522;-73
2023/05/03 01:05:06;;;;;;;;;13.00;9.00;;;;;-150.52;100.00;63513.88;2026448;27;2771116;-73
2023/05/03 01:06:35;;;;;;;;;10.50;9.50;;;;;-150.52;100.00;63513.88;2008946;27;2779458;-73
2023/05/03 01:08:10;;;;;;;;;16.00;12.20;;;;;-150.52;100.00;63513.88;2021113;27;3519997;-73
2023/05/03 01:09:31;;;;;;;;;14.00;12.00;;;;;-150.52;100.00;63513.88;2031750;27;2782573;-73
2023/05/03 01:10:47;;;;;;;;;10.67;8.33;;;;;-150.52;100.00;63513.88;2025177;28;2757650;-73
2023/05/03 01:12:01;;;;;;;;;15.00;12.50;;;;;-150.52;100.00;63513.88;2024661;27;2816932;-73
2023/05/03 01:13:50;;;;;;;;;10.25;10.25;;;;;-150.52;100.00;63513.88;2022819;27;1838894;-73
2023/05/03 01:15:18;;;;;;;;;16.00;12.00;;;;;-150.52;100.00;63513.88;2025873;27;2802849;-73
2023/05/03 01:16:38;;;;;;;;;15.67;14.67;;;;;-150.52;100.00;63513.88;2004109;27;2823187;-73
2023/05/03 01:17:57;;;;;;;;;13.67;10.67;;;;;-150.52;100.00;63513.88;2054173;28;1837836;-73
2023/05/03 01:19:27;;;;;;;;;10.00;9.00;;;;;-150.52;100.00;63513.88;1993890;28;2763802;-74
2023/05/03 01:20:45;;;;;;;;;14.60;11.80;;;;;-150.52;100.00;63513.88;2044553;27;2799169;-73
2023/05/03 01:22:05;;;;;;;;;16.33;14.00;;;;;-150.52;100.00;63513.88;2036827;27;1827441;-74
2023/05/03 01:23:53;;;;;;;;;9.50;9.50;;;;;-150.52;100.00;63513.88;1994736;28;2765912;-74
2023/05/03 01:25:12;;;;;;;;;10.67;9.67;;;;;-150.52;100.00;63513.88;2014492;27;1834638;-73
2023/05/03 01:26:26;;;;;;;;;15.67;14.00;;;;;-150.52;100.00;63513.88;2032207;28;1833662;-73
2023/05/03 01:27:38;;;;;;;;;12.00;10.00;;;;;-150.52;100.00;63513.88;1993012;28;2783608;-73
2023/05/03 01:28:53;;;;;;;;;9.83;9.83;;;;;-150.52;100.00;63513.88;2050478;27;1827418;-73
2023/05/03 01:30:05;;;;;;;;;11.50;9.50;;;;;-150.52;100.00;63513.88;2010812;27;2781510;-73
2023/05/03 01:31:52;;;;;;;;;12.00;8.67;;;;;-150.52;100.00;63513.88;2024331;27;1830599;-73
2023/05/03 01:33:11;;;;;;;;;14.50;11.50;;;;;-150.52;100.00;63513.88;2000642;28;2791926;-73
2023/05/03 01:35:00;;;;;;;;;10.00;9.00;;;;;-150.52;100.00;63513.88;2003770;27;3478368;-73
2023/05/03 01:36:25;;;;;;;;;10.67;9.67;;;;;-150.52;100.00;63513.88;2030887;28;1822197;-73
2023/05/03 01:37:36;;;;;;;;;15.00;12.50;;;;;-150.52;100.00;63513.88;1976477;28;2796116;-73
2023/05/03 01:38:48;;;;;;;;;11.00;11.00;;;;;-150.52;100.00;63513.88;2008172;28;2795082;-73
2023/05/03 01:40:03;;;;;;;;;12.00;12.00;;;;;-150.52;100.00;63513.88;1994852;28;2788845;-73
2023/05/03 01:41:17;;;;;;;;;10.00;9.00;;;;;-150.52;100.00;63513.88;2023490;28;2763806;-73
2023/05/03 01:42:29;;;;;;;;;12.00;10.50;;;;;-150.52;100.00;63513.88;1999587;27;2791944;-73
2023/05/03 01:43:42;;;;;;;;;8.33;8.33;;;;;-150.52;100.00;63513.88;2026066;27;3459639;-73
2023/05/03 01:44:54;;;;;;;;;13.00;10.50;;;;;-150.52;100.00;63513.88;2035997;27;2784646;-73
2023/05/03 01:46:04;;;;;;;;;10.67;7.67;;;;;-150.52;100.00;63513.88;2034600;27;3470043;-73
2023/05/03 01:47:16;;;;;;;;;14.00;12.00;;;;;-150.52;100.00;63513.88;2042127;28;2786810;-73
2023/05/03 01:48:26;;;;;;;;;13.50;11.50;;;;;-150.52;100.00;63513.88;2036540;27;2783954;-73
2023/05/03 01:49:38;;;;;;;;;15.00;13.00;;;;;-150.52;100.00;63513.88;2047498;27;2789851;-73
2023/05/03 01:50:48;;;;;;;;;17.50;12.00;;;;;-150.52;100.00;63513.88;2031420;28;2795059;-73
2023/05/03 01:52:00;;;;;;;;;10.00;9.50;;;;;-150.52;100.00;63513.88;2016096;27;2764868;-73
2023/05/03 01:53:10;;;;;;;;;12.00;9.33;;;;;-150.52;100.00;63513.88;2042521;27;3482504;-73
2023/05/03 01:54:22;;;;;;;;;12.00;12.00;;;;;-150.52;100.00;63513.88;2052706;27;2783666;-73
2023/05/03 01:55:35;;;;;;;;;12.00;9.50;;;;;-150.52;100.00;63513.88;2064960;27;1827411;-73
2023/05/03 01:56:46;;;;;;;;;12.50;9.50;;;;;-150.52;100.00;63513.88;2000518;28;2774272;-73
2023/05/03 01:57:58;;;;;;;;;13.20;10.80;;;;;-150.52;100.00;63513.88;2056626;27;1819046;-73
2023/05/03 01:59:09;;;;;;;;;14.50;10.25;;;;;-150.52;100.00;63513.88;2038323;28;1840944;-73
2023/05/03 02:00:21;;;;;;;;;11.25;9.75;;;;;-150.52;100.00;63513.88;2041490;27;1832546;-73
2023/05/03 02:01:34;;;;;;;;;12.50;9.50;;;;;-150.52;100.00;63513.88;2065064;27;1830264;-73
2023/05/03 02:02:47;;;;;;;;;11.83;11.83;;;;;-150.52;100.00;63513.88;2043182;27;1819071;-73
2023/05/03 02:03:58;;;;;;;;;14.00;11.00;;;;;-150.52;100.00;63513.88;2000604;28;2784655;-73
2023/05/03 02:05:10;;;;;;;;;9.00;7.75;;;;;-150.52;100.00;63513.88;2045898;28;2748221;-73
2023/05/03 02:06:20;;;;;;;;;15.00;14.00;;;;;-150.52;100.00;63513.88;1998669;27;2787760;-73
2023/05/03 02:07:31;;;;;;;;;15.00;10.00;;;;;-150.52;100.00;63513.88;2044761;27;2787778;-73
2023/05/03 02:08:42;;;;;;;;;12.00;11.00;;;;;-150.52;100.00;63513.88;2051346;27;2788231;-73
2023/05/03 02:09:53;;;;;;;;;16.00;13.00;;;;;-150.52;100.00;63513.88;2026619;27;2795054;-73
2023/05/03 02:11:05;;;;;;;;;14.50;11.50;;;;;-150.52;100.00;63513.88;2040173;27;2787807;-73
2023/05/03 02:12:18;;;;;;;;;16.33;12.50;;;;;-150.52;100.00;63513.88;2040222;27;1825327;-73
2023/05/03 02:13:31;;;;;;;;;10.00;8.33;;;;;-150.52;100.00;63513.88;2043995;27;1821131;-73
2023/05/03 02:14:42;;;;;;;;;14.00;10.50;;;;;-150.52;100.00;63513.88;2008126;27;2788821;-73
2023/05/03 02:15:54;;;;;;;;;16.80;14.00;;;;;-150.52;100.00;63513.88;2059977;27;1821142;-73
2023/05/03 02:17:07;;;;;;;;;15.00;12.00;;;;;-150.52;100.00;63513.88;2025174;27;2798176;-73
2023/05/03 02:18:19;;;;;;;;;12.00;12.00;;;;;-150.52;100.00;63513.88;1999854;28;2795067;-73
2023/05/03 02:19:29;;;;;;;;;17.00;14.50;;;;;-150.52;100.00;63513.88;2022140;27;2798200;-73
2023/05/03 02:20:44;;;;;;;;;12.75;12.75;;;;;-150.52;100.00;63513.88;2036656;27;1835719;-73
2023/05/03 02:21:55;;;;;;;;;16.00;13.00;;;;;-150.52;100.00;63513.88;2005605;27;2792292;-73
2023/05/03 02:23:06;;;;;;;;;12.00;10.00;;;;;-150.52;100.00;63513.88;1999282;28;2789131;-73
2023/05/03 02:24:18;;;;;;;;;14.00;11.50;;;;;-150.52;100.00;63513.88;2017660;27;2795058;-73
2023/05/03 02:25:31;;;;;;;;;15.50;13.33;;;;;-150.52;100.00;63513.88;2034473;27;1820077;-73
2023/05/03 02:26:42;;;;;;;;;15.50;11.50;;;;;-150.52;100.00;63513.88;2008757;27;2799720;-73
2023/05/03 02:27:55;;;;;;;;;14.40;10.40;;;;;-150.52;100.00;63513.88;2030001;28;1825246;-74
2023/05/03 02:29:06;;;;;;;;;16.50;12.00;;;;;-150.52;100.00;63513.88;2014706;28;2800216;-73
2023/05/03 02:30:16;;;;;;;;;14.00;11.00;;;;;-150.52;100.00;63513.88;1999699;27;2786806;-73
2023/05/03 02:31:27;;;;;;;;;14.00;14.00;;;;;-150.52;100.00;63513.88;2016306;27;2795039;-73
2023/05/03 02:32:38;;;;;;;;;15.50;13.00;;;;;-150.52;100.00;63513.88;2004106;27;2788839;-73
2023/05/03 02:33:50;;;;;;;;;9.75;8.50;;;;;-150.52;100.00;63513.88;2028323;28;1836760;-73
2023/05/03 02:35:01;;;;;;;;;11.00;10.00;;;;;-150.52;100.00;63513.88;2013774;28;2771177;-73
2023/05/03 02:36:15;;;;;;;;;18.00;12.00;;;;;-150.52;100.00;63513.88;2026210;27;1823211;-73
2023/05/03 02:37:25;;;;;;;;;13.50;13.00;;;;;-150.52;100.00;63513.88;2008219;27;2795074;-73
2023/05/03 02:38:36;;;;;;;;;14.00;13.00;;;;;-150.52;100.00;63513.88;2012958;28;2789883;-73
2023/05/03 02:39:47;;;;;;;;;16.50;13.00;;;;;-150.52;100.00;63513.88;2036784;28;2797138;-73
2023/05/03 02:40:58;;;;;;;;;14.50;11.00;;;;;-150.52;100.00;63513.88;2021747;27;2790887;-73
2023/05/03 02:42:09;;;;;;;;;14.00;10.00;;;;;-150.52;100.00;63513.88;2018829;27;2771122;-73
2023/05/03 02:43:22;;;;;;;;;16.33;12.00;;;;;-150.52;100.00;63513.88;2050062;27;3525873;-73
2023/05/03 02:44:32;;;;;;;;;19.00;15.50;;;;;-150.52;100.00;63513.88;2030637;27;2822205;-73
2023/05/03 02:45:43;;;;;;;;;9.50;9.00;;;;;-150.52;100.00;63513.88;2019052;27;2759022;-73
2023/05/03 02:46:54;;;;;;;;;14.00;12.00;;;;;-150.52;100.00;63513.88;2045503;27;2789846;-73
2023/05/03 02:48:05;;;;;;;;;15.00;12.00;;;;;-150.52;100.00;63513.88;2041972;27;2791962;-73
2023/05/03 02:49:16;;;;;;;;;15.50;14.50;;;;;-150.52;100.00;63513.88;2015389;28;2809634;-73
2023/05/03 02:50:27;;;;;;;;;13.00;10.50;;;;;-150.52;100.00;63513.88;2017136;28;2784643;-73
2023/05/03 02:51:38;;;;;;;;;8.00;8.00;;;;;-150.52;100.00;63513.88;2043374;27;3449207;-73
2023/05/03 02:52:49;;;;;;;;;14.50;11.50;;;;;-150.52;100.00;63513.88;2045249;27;2801412;-73
2023/05/03 02:54:00;;;;;;;;;13.50;10.00;;;;;-150.52;100.00;63513.88;2017754;27;2772190;-73
2023/05/03 02:55:11;;;;;;;;;15.00;15.00;;;;;-150.52;100.00;63513.88;2034006;28;2809677;-73
2023/05/03 02:56:25;;;;;;;;;18.67;15.67;;;;;-150.52;100.00;63513.88;2012258;27;2826329;-73
2023/05/03 02:57:36;;;;;;;;;17.33;11.00;;;;;-150.52;100.00;63513.88;2019332;28;2810778;-73
2023/05/03 02:58:47;;;;;;;;;17.00;12.00;;;;;-150.52;100.00;63513.88;2015034;28;2811958;-73
2023/05/03 02:59:58;;;;;;;;;15.00;12.00;;;;;-150.52;100.00;63513.88;2023568;27;2793986;-73
2023/05/03 03:01:10;;;;;;;;;14.00;13.75;;;;;-150.52;100.00;63513.88;2034779;27;1827960;-73
2023/05/03 03:02:21;;;;;;;;;19.67;17.00;;;;;-150.52;100.00;63513.88;2005285;27;2821124;-73
2023/05/03 03:03:33;;;;;;;;;20.00;16.33;;;;;-150.52;100.00;63513.88;2016215;28;3565877;-73
2023/05/03 03:04:44;;;;;;;;;16.50;15.50;;;;;-150.52;100.00;63513.88;2039963;27;2824234;-73
2023/05/03 03:05:55;;;;;;;;;16.00;13.00;;;;;-150.52;100.00;63513.88;2025978;28;1829490;-73
2023/05/03 03:07:05;;;;;;;;;16.50;15.00;;;;;-150.52;100.00;63513.88;2001908;27;2812726;-73
2023/05/03 03:08:17;;;;;;;;;21.33;16.00;;;;;-150.52;100.00;63513.88;2024242;27;3554430;-73
2023/05/03 03:09:28;;;;;;;;;7.33;6.33;;;;;-150.52;100.00;63513.88;2057631;27;1816961;-73
2023/05/03 03:10:39;;;;;;;;;20.00;16.00;;;;;-150.52;100.00;63513.88;2002487;28;2818010;-73
2023/05/03 03:11:51;;;;;;;;;18.33;16.00;;;;;-150.52;100.00;63513.88;2037729;27;3551316;-73
2023/05/03 03:13:03;;;;;;;;;19.67;16.67;;;;;-150.52;100.00;63513.88;2027103;27;3562021;-73
2023/05/03 03:14:14;;;;;;;;;21.80;17.40;;;;;-150.52;100.00;63513.88;2053583;27;3567525;-73
2023/05/03 03:15:26;;;;;;;;;15.00;14.50;;;;;-150.52;100.00;63513.88;2043726;27;2803384;-73
2023/05/03 03:16:37;;;;;;;;;16.33;10.33;;;;;-150.52;100.00;63513.88;2023912;27;2809149;-73
2023/05/03 03:17:48;;;;;;;;;24.00;18.50;;;;;-150.52;100.00;63513.88;2027418;28;2835691;-73
2023/05/03 03:19:00;;;;;;;;;26.00;20.00;;;;;-150.52;100.00;63513.88;2016641;28;3555473;-73
2023/05/03 03:20:12;;;;;;;;;25.33;20.00;;;;;-150.52;100.00;63513.88;2041463;27;3572107;-73
2023/05/03 03:21:24;;;;;;;;;24.33;20.00;;;;;-150.52;100.00;63513.88;2042183;27;3583576;-73
2023/05/03 03:22:39;;;;;;;;;22.20;18.60;;;;;-150.52;100.00;63513.88;2042896;28;2829389;-73
2023/05/03 03:23:54;;;;;;;;;17.43;11.71;;;;;-150.52;100.00;63513.88;2031597;27;1839825;-73
2023/05/03 03:25:07;;;;;;;;;18.67;16.33;;;;;-150.52;100.00;63513.88;2029262;27;3550229;-73
2023/05/03 03:26:17;;;;;;;;;19.50;16.00;;;;;-150.52;100.00;63513.88;2032352;27;2803467;-73
2023/05/03 03:27:29;;;;;;;;;18.33;17.33;;;;;-150.52;100.00;63513.88;2015505;28;2819061;-73
2023/05/03 03:28:39;;;;;;;;;17.00;17.00;;;;;-150.52;100.00;63513.88;2022302;27;2807590;-73
2023/05/03 03:29:52;;;;;;;;;15.17;12.00;;;;;-150.52;100.00;63513.88;2035534;27;2791915;-73
2023/05/03 03:31:04;;;;;;;;;16.00;16.00;;;;;-150.52;100.00;63513.88;2018397;28;3541876;-73
2023/05/03 03:32:16;;;;;;;;;20.67;17.67;;;;;-150.52;100.00;63513.88;2042124;27;2824304;-73
2023/05/03 03:33:27;;;;;;;;;19.00;16.00;;;;;-150.52;100.00;63513.88;2031240;27;2830482;-73
2023/05/03 03:34:38;;;;;;;;;19.33;18.33;;;;;-150.52;100.00;63513.88;2020091;27;3558774;-73
2023/05/03 03:35:50;;;;;;;;;17.67;15.00;;;;;-150.52;100.00;63513.88;2032917;28;2835705;-73
2023/05/03 03:37:02;;;;;;;;;21.33;19.33;;;;;-150.52;100.00;63513.88;2021431;27;3554435;-73
2023/05/03 03:38:13;;;;;;;;;21.33;17.67;;;;;-150.52;100.00;63513.88;2047509;27;2825365;-73
2023/05/03 03:39:25;;;;;;;;;23.00;21.33;;;;;-150.52;100.00;63513.88;2032057;27;3575275;-73
2023/05/03 03:40:37;;;;;;;;;23.33;19.00;;;;;-150.52;100.00;63513.88;2048855;27;3561117;-73
2023/05/03 03:41:49;;;;;;;;;20.67;19.33;;;;;-150.52;100.00;63513.88;2047135;27;3566953;-73
2023/05/03 03:43:00;;;;;;;;;19.40;15.80;;;;;-150.52;100.00;63513.88;2044438;28;3539808;-73
2023/05/03 03:44:12;;;;;;;;;24.00;18.33;;;;;-150.52;100.00;63513.88;2039624;28;3558589;-73
2023/05/03 03:45:24;;;;;;;;;24.67;20.33;;;;;-150.52;100.00;63513.88;2038632;27;2825383;-73
2023/05/03 03:46:35;;;;;;;;;18.00;14.50;;;;;-150.52;100.00;63513.88;2026989;27;2823274;-73
2023/05/03 03:47:46;;;;;;;;;18.67;18.33;;;;;-150.52;100.00;63513.88;2038037;28;3551287;-73
2023/05/03 03:48:57;;;;;;;;;19.00;17.00;;;;;-150.52;100.00;63513.88;2051062;27;1835766;-73
2023/05/03 03:50:08;;;;;;;;;21.00;20.00;;;;;-150.52;100.00;63513.88;2010485;27;2824232;-73
2023/05/03 03:51:20;;;;;;;;;22.33;18.67;;;;;-150.52;100.00;63513.88;2038960;27;3560657;-73
2023/05/03 03:52:32;;;;;;;;;22.67;17.33;;;;;-150.52;100.00;63513.88;2047617;27;3556521;-73
2023/05/03 03:53:43;;;;;;;;;19.67;17.00;;;;;-150.52;100.00;63513.88;2038490;27;3554482;-73
2023/05/03 03:54:55;;;;;;;;;22.00;18.33;;;;;-150.52;100.00;63513.88;2043539;27;2827425;-73
2023/05/03 03:56:07;;;;;;;;;23.33;22.33;;;;;-150.52;100.00;63513.88;2032488;27;3573164;-73
2023/05/03 03:57:19;;;;;;;;;20.60;19.40;;;;;-150.52;100.00;63513.88;2045024;27;3562703;-73
2023/05/03 03:58:30;;;;;;;;;18.25;12.75;;;;;-150.52;100.00;63513.88;2056743;27;1829504;-73
2023/05/03 03:59:43;;;;;;;;;19.80;18.40;;;;;-150.52;100.00;63513.88;2029215;27;2830419;-73
2023/05/03 04:00:56;;;;;;;;;21.80;19.40;;;;;-150.52;100.00;63513.88;2035011;27;2827803;-73
2023/05/03 04:02:07;;;;;;;;;21.67;18.67;;;;;-150.52;100.00;63513.88;2017522;28;3558013;-73
2023/05/03 04:03:19;;;;;;;;;20.60;16.80;;;;;-150.52;100.00;63513.88;2037827;28;3558592;-73
2023/05/03 04:04:31;;;;;;;;;20.33;18.67;;;;;-150.52;100.00;63513.88;2039905;27;3557527;-73
2023/05/03 04:05:43;;;;;;;;;17.33;16.33;;;;;-150.52;100.00;63513.88;2032680;28;3555441;-73
2023/05/03 04:06:55;;;;;;;;;23.00;20.33;;;;;-150.52;100.00;63513.88;2040370;27;3580439;-73
2023/05/03 04:08:07;;;;;;;;;19.00;16.33;;;;;-150.52;100.00;63513.88;2048983;27;3565865;-73
2023/05/03 04:09:20;;;;;;;;;17.80;16.20;;;;;-150.52;100.00;63513.88;2059611;27;1835746;-73
2023/05/03 04:10:31;;;;;;;;;19.67;17.67;;;;;-150.52;100.00;63513.88;2023361;28;3561709;-73
2023/05/03 04:11:44;;;;;;;;;20.67;20.33;;;;;-150.52;100.00;63513.88;2035822;28;3568990;-73
2023/05/03 04:12:55;;;;;;;;;18.50;18.50;;;;;-150.52;100.00;63513.88;2025614;27;2834647;-73
2023/05/03 04:14:07;;;;;;;;;23.60;18.60;;;;;-150.52;100.00;63513.88;2044864;27;3579394;-73
2023/05/03 04:15:19;;;;;;;;;22.00;18.33;;;;;-150.52;100.00;63513.88;2043036;27;3562752;-73
2023/05/03 04:16:30;;;;;;;;;19.67;19.00;;;;;-150.52;100.00;63513.88;2037921;27;3555449;-73
2023/05/03 04:17:42;;;;;;;;;23.00;21.00;;;;;-150.52;100.00;63513.88;2048253;27;3571166;-73
2023/05/03 04:18:54;;;;;;;;;20.67;20.67;;;;;-150.52;100.00;63513.88;2044964;27;3571057;-73
2023/05/03 04:20:09;;;;;;;;;26.67;23.33;;;;;-150.52;100.00;63513.88;2033176;28;3585676;-73
2023/05/03 04:21:21;;;;;;;;;22.00;21.33;;;;;-150.52;100.00;63513.88;2023811;27;3574201;-73
2023/05/03 04:22:33;;;;;;;;;25.00;22.67;;;;;-150.52;100.00;63513.88;2038933;28;3577354;-73
2023/05/03 04:23:45;;;;;;;;;29.33;20.00;;;;;-150.52;100.00;63513.88;2038426;27;3606477;-73
2023/05/03 04:24:56;;;;;;;;;20.33;18.67;;;;;-150.52;100.00;63513.88;2009745;28;3560656;-73
2023/05/03 04:26:09;;;;;;;;;21.67;18.67;;;;;-150.52;100.00;63513.88;2028428;28;3568982;-73
2023/05/03 04:27:20;;;;;;;;;25.00;20.00;;;;;-150.52;100.00;63513.88;2025315;27;3583596;-73
2023/05/03 04:28:32;;;;;;;;;20.00;18.33;;;;;-150.52;100.00;63513.88;2039761;28;3567964;-73
2023/05/03 04:29:44;;;;;;;;;26.40;19.20;;;;;-150.52;100.00;63513.88;2040256;27;3589794;-73
2023/05/03 04:30:57;;;;;;;;;22.67;17.33;;;;;-150.52;100.00;63513.88;2024657;27;3559595;-73
2023/05/03 04:32:08;;;;;;;;;19.50;17.50;;;;;-150.52;100.00;63513.88;2029574;27;2827353;-73
2023/05/03 04:33:19;;;;;;;;;27.00;24.00;;;;;-150.52;100.00;63513.88;2024122;27;2834676;-73
2023/05/03 04:34:31;;;;;;;;;24.00;21.67;;;;;-150.52;100.00;63513.88;2007233;27;3569996;-73
2023/05/03 04:35:42;;;;;;;;;26.60;24.20;;;;;-150.52;100.00;63513.88;2049255;27;3581480;-73
2023/05/03 04:36:54;;;;;;;;;21.67;20.67;;;;;-150.52;100.00;63513.88;2024093;27;3571053;-73
2023/05/03 04:38:07;;;;;;;;;23.00;19.67;;;;;-150.52;100.00;63513.88;2032490;28;3587791;-73
2023/05/03 04:39:19;;;;;;;;;24.67;19.67;;;;;-150.52;100.00;63513.88;2017471;27;3581477;-73
2023/05/03 04:40:31;;;;;;;;;22.67;17.00;;;;;-150.52;100.00;63513.88;2042553;27;3570039;-73
2023/05/03 04:41:43;;;;;;;;;29.67;23.00;;;;;-150.52;100.00;63513.88;2040074;27;3598178;-73
2023/05/03 04:42:56;;;;;;;;;26.00;23.00;;;;;-150.52;100.00;63513.88;2016912;27;3576271;-73
2023/05/03 04:44:07;;;;;;;;;21.00;18.67;;;;;-150.52;100.00;63513.88;2025519;27;3568967;-73
2023/05/03 04:45:19;;;;;;;;;19.80;19.40;;;;;-150.52;100.00;63513.88;2041524;27;3560632;-73
2023/05/03 04:46:31;;;;;;;;;22.60;21.00;;;;;-150.52;100.00;63513.88;2039470;27;3578339;-73
2023/05/03 04:47:43;;;;;;;;;20.67;18.00;;;;;-150.52;100.00;63513.88;2047930;27;3573534;-73
2023/05/03 04:48:55;;;;;;;;;26.00;21.33;;;;;-150.52;100.00;63513.88;2031934;27;3579405;-73
2023/05/03 04:50:07;;;;;;;;;19.67;18.33;;;;;-150.52;100.00;63513.88;2045549;27;3573503;-73
2023/05/03 04:51:19;;;;;;;;;21.00;17.67;;;;;-150.52;100.00;63513.88;2024374;27;3574244;-73
2023/05/03 04:52:30;;;;;;;;;21.33;19.33;;;;;-150.52;100.00;63513.88;2046409;27;3577356;-73
2023/05/03 04:53:42;;;;;;;;;26.20;21.60;;;;;-150.52;100.00;63513.88;2041011;28;3582523;-73
2023/05/03 04:54:54;;;;;;;;;21.00;18.00;;;;;-150.52;100.00;63513.88;2040409;27;3566944;-74
2023/05/03 04:56:07;;;;;;;;;18.40;15.80;;;;;-150.52;100.00;63513.88;2057082;27;2828374;-73
2023/05/03 04:57:19;;;;;;;;;20.60;20.20;;;;;-150.52;100.00;63513.88;2026251;27;3573129;-73
2023/05/03 04:58:31;;;;;;;;;20.00;18.67;;;;;-150.52;100.00;63513.88;2043074;27;3563828;-73
2023/05/03 04:59:43;;;;;;;;;18.33;18.00;;;;;-150.52;100.00;63513.88;2031282;28;3559671;-73
2023/05/03 05:00:56;;;;;;;;;18.20;15.60;;;;;-150.52;100.00;63513.88;2049799;27;1833623;-73
2023/05/03 05:02:07;;;;;;;;;23.33;19.33;;;;;-150.52;100.00;63513.88;2030442;27;3575286;-73
2023/05/03 05:03:19;;;;;;;;;23.60;21.00;;;;;-150.52;100.00;63513.88;2042551;28;3576352;-73
2023/05/03 05:04:31;;;;;;;;;23.00;18.67;;;;;-150.52;100.00;63513.88;2040298;27;3568983;-73
2023/05/03 05:05:43;;;;;;;;;22.80;20.40;;;;;-150.52;100.00;63513.88;2041285;27;3577300;-73
2023/05/03 05:06:55;;;;;;;;;22.67;21.00;;;;;-150.52;100.00;63513.88;2048205;27;3570071;-73
2023/05/03 05:08:07;;;;;;;;;22.40;20.00;;;;;-150.52;100.00;63513.88;2052101;27;3573170;-73
2023/05/03 05:09:23;;;;;;;;;20.00;18.00;;;;;-150.52;100.00;63513.88;2057523;27;1848248;-73
2023/05/03 05:10:42;;;;;;;;;24.60;18.20;;;;;-150.52;100.00;63513.88;2027187;27;2841939;-73
2023/05/03 05:11:54;;;;;;;;;26.00;21.00;;;;;-150.52;100.00;63513.88;2006846;27;3575283;-73
2023/05/03 05:13:06;;;;;;;;;23.33;20.00;;;;;-150.52;100.00;63513.88;2028062;27;3570071;-73
2023/05/03 05:14:17;;;;;;;;;18.00;17.00;;;;;-150.52;100.00;63513.88;2043949;27;2817967;-73
2023/05/03 05:15:29;;;;;;;;;20.40;19.00;;;;;-150.52;100.00;63513.88;2009821;28;3561648;-73
2023/05/03 05:16:40;;;;;;;;;23.33;19.00;;;;;-150.52;100.00;63513.88;2040819;27;3564824;-73